sensor_id;sensor_type;location;lat;lon;timestamp;temperature;humidity
5930;DHT22;2990;48.746;9.236;2023-02-28T00:01:42;-2.50;99.90
5930;DHT22;2990;48.746;9.236;2023-02-28T00:04:08;-2.50;1.00
5930;DHT22;2990;48.746;9.236;2023-02-28T00:06:43;-2.50;1.00
5930;DHT22;2990;48.746;9.236;2023-02-28T00:09:25;-2.50;1.00
5930;DHT22;2990;48.746;9.236;2023-02-28T00:11:51;-2.60;1.00
5930;DHT22;2990;48.746;9.236;2023-02-28T00:14:16;-2.60;1.00
5930;DHT22;2990;48.746;9.236;2023-02-28T00:16:42;-2.60;1.00
5930;DHT22;2990;48.746;9.236;2023-02-28T00:19:08;-2.70;1.00
5930;DHT22;2990;48.746;9.236;2023-02-28T00:21:34;-2.70;1.00
5930;DHT22;2990;48.746;9.236;2023-02-28T00:24:01;-2.50;1.00
5930;DHT22;2990;48.746;9.236;2023-02-28T00:26:26;-2.70;1.00
5930;DHT22;2990;48.746;9.236;2023-02-28T00:32:31;-2.70;1.00
5930;DHT22;2990;48.746;9.236;2023-02-28T00:35:00;-2.70;1.00
5930;DHT22;2990;48.746;9.236;2023-02-28T00:37:29;-2.60;1.00
5930;DHT22;2990;48.746;9.236;2023-02-28T00:39:56;-2.80;1.00
5930;DHT22;2990;48.746;9.236;2023-02-28T00:42:22;-2.80;1.00
5930;DHT22;2990;48.746;9.236;2023-02-28T00:44:48;-2.80;1.00
5930;DHT22;2990;48.746;9.236;2023-02-28T00:47:14;-2.80;1.00
5930;DHT22;2990;48.746;9.236;2023-02-28T00:49:40;-2.70;1.00
5930;DHT22;2990;48.746;9.236;2023-02-28T00:52:06;-2.80;1.00
5930;DHT22;2990;48.746;9.236;2023-02-28T00:54:31;-2.80;1.00
5930;DHT22;2990;48.746;9.236;2023-02-28T00:56:57;-2.90;1.00
5930;DHT22;2990;48.746;9.236;2023-02-28T00:59:24;-2.90;1.00
5930;DHT22;2990;48.746;9.236;2023-02-28T01:01:52;-3.00;1.00
5930;DHT22;2990;48.746;9.236;2023-02-28T01:04:20;-2.90;1.00
5930;DHT22;2990;48.746;9.236;2023-02-28T01:06:49;-2.90;1.00
5930;DHT22;2990;48.746;9.236;2023-02-28T01:09:15;-2.90;1.00
5930;DHT22;2990;48.746;9.236;2023-02-28T01:11:41;-3.00;1.00
5930;DHT22;2990;48.746;9.236;2023-02-28T01:14:12;-3.00;1.00
5930;DHT22;2990;48.746;9.236;2023-02-28T01:16:41;-3.00;1.00
5930;DHT22;2990;48.746;9.236;2023-02-28T01:19:07;-3.10;1.00
5930;DHT22;2990;48.746;9.236;2023-02-28T01:21:34;-3.10;1.00
5930;DHT22;2990;48.746;9.236;2023-02-28T01:24:04;-3.20;1.00
5930;DHT22;2990;48.746;9.236;2023-02-28T01:26:54;-3.20;1.00
5930;DHT22;2990;48.746;9.236;2023-02-28T01:29:26;-3.10;1.00
5930;DHT22;2990;48.746;9.236;2023-02-28T01:31:52;-3.10;1.00
5930;DHT22;2990;48.746;9.236;2023-02-28T01:34:19;-3.10;15.30
5930;DHT22;2990;48.746;9.236;2023-02-28T01:36:46;-3.10;38.60
5930;DHT22;2990;48.746;9.236;2023-02-28T01:39:18;-3.00;79.60
5930;DHT22;2990;48.746;9.236;2023-02-28T01:41:43;-3.00;63.90
5930;DHT22;2990;48.746;9.236;2023-02-28T01:47:12;-3.10;99.90
5930;DHT22;2990;48.746;9.236;2023-02-28T01:49:38;-3.20;99.90
5930;DHT22;2990;48.746;9.236;2023-02-28T01:52:04;-3.20;99.90
5930;DHT22;2990;48.746;9.236;2023-02-28T01:54:32;-3.20;99.90
5930;DHT22;2990;48.746;9.236;2023-02-28T01:57:03;-3.20;99.90
5930;DHT22;2990;48.746;9.236;2023-02-28T01:59:36;-3.20;99.90
5930;DHT22;2990;48.746;9.236;2023-02-28T02:02:04;-3.20;99.90
5930;DHT22;2990;48.746;9.236;2023-02-28T02:04:41;-3.10;1.00
5930;DHT22;2990;48.746;9.236;2023-02-28T02:07:13;-3.00;99.90
5930;DHT22;2990;48.746;9.236;2023-02-28T02:10:20;-3.00;1.00
5930;DHT22;2990;48.746;9.236;2023-02-28T02:13:08;-3.10;99.90
5930;DHT22;2990;48.746;9.236;2023-02-28T02:18:33;-3.10;1.00
5930;DHT22;2990;48.746;9.236;2023-02-28T02:33:10;-2.90;1.00
5930;DHT22;2990;48.746;9.236;2023-02-28T02:42:48;-2.90;1.00
5930;DHT22;2990;48.746;9.236;2023-02-28T02:45:49;-2.90;1.00
5930;DHT22;2990;48.746;9.236;2023-02-28T02:48:20;-2.80;1.00
5930;DHT22;2990;48.746;9.236;2023-02-28T02:54:24;-2.90;1.00
5930;DHT22;2990;48.746;9.236;2023-02-28T02:57:21;-2.70;1.00
5930;DHT22;2990;48.746;9.236;2023-02-28T03:00:10;-2.90;16.40
5930;DHT22;2990;48.746;9.236;2023-02-28T03:02:41;-2.90;1.00
5930;DHT22;2990;48.746;9.236;2023-02-28T03:05:47;-2.90;10.80
5930;DHT22;2990;48.746;9.236;2023-02-28T03:08:16;-2.80;46.60
5930;DHT22;2990;48.746;9.236;2023-02-28T03:11:12;-2.80;99.90
5930;DHT22;2990;48.746;9.236;2023-02-28T03:24:18;-2.80;99.90
5930;DHT22;2990;48.746;9.236;2023-02-28T03:26:52;-2.80;1.00
5930;DHT22;2990;48.746;9.236;2023-02-28T03:29:23;-2.80;1.00
5930;DHT22;2990;48.746;9.236;2023-02-28T03:32:16;-2.80;1.00
5930;DHT22;2990;48.746;9.236;2023-02-28T03:34:58;-2.80;1.00
5930;DHT22;2990;48.746;9.236;2023-02-28T03:37:30;-2.70;1.00
5930;DHT22;2990;48.746;9.236;2023-02-28T03:40:06;-2.50;1.00
5930;DHT22;2990;48.746;9.236;2023-02-28T03:42:36;-2.90;1.00
5930;DHT22;2990;48.746;9.236;2023-02-28T03:45:30;-2.70;1.00
5930;DHT22;2990;48.746;9.236;2023-02-28T03:48:31;-2.80;99.90
5930;DHT22;2990;48.746;9.236;2023-02-28T03:50:59;-2.70;99.90
5930;DHT22;2990;48.746;9.236;2023-02-28T03:54:11;-2.70;99.90
5930;DHT22;2990;48.746;9.236;2023-02-28T04:00:03;-2.60;47.20
5930;DHT22;2990;48.746;9.236;2023-02-28T04:02:31;-2.60;99.90
5930;DHT22;2990;48.746;9.236;2023-02-28T04:04:59;-2.60;99.90
5930;DHT22;2990;48.746;9.236;2023-02-28T04:07:29;-2.70;99.90
5930;DHT22;2990;48.746;9.236;2023-02-28T04:09:55;-2.60;99.90
5930;DHT22;2990;48.746;9.236;2023-02-28T04:12:21;-2.60;1.00
5930;DHT22;2990;48.746;9.236;2023-02-28T04:14:51;-2.60;1.00
5930;DHT22;2990;48.746;9.236;2023-02-28T04:17:19;-2.60;1.00
5930;DHT22;2990;48.746;9.236;2023-02-28T04:19:49;-2.60;1.00
5930;DHT22;2990;48.746;9.236;2023-02-28T04:22:19;-2.50;1.00
5930;DHT22;2990;48.746;9.236;2023-02-28T04:24:49;-2.50;1.00
5930;DHT22;2990;48.746;9.236;2023-02-28T04:27:14;-2.80;1.00
5930;DHT22;2990;48.746;9.236;2023-02-28T04:29:41;-2.40;99.90
5930;DHT22;2990;48.746;9.236;2023-02-28T04:32:10;-2.60;99.90
5930;DHT22;2990;48.746;9.236;2023-02-28T04:34:36;-2.60;1.00
5930;DHT22;2990;48.746;9.236;2023-02-28T04:37:02;-2.20;1.00
5930;DHT22;2990;48.746;9.236;2023-02-28T04:39:28;-2.60;1.00
5930;DHT22;2990;48.746;9.236;2023-02-28T04:41:56;-2.60;1.00
5930;DHT22;2990;48.746;9.236;2023-02-28T04:44:22;-2.60;1.00
5930;DHT22;2990;48.746;9.236;2023-02-28T04:46:49;-2.50;1.00
5930;DHT22;2990;48.746;9.236;2023-02-28T04:49:15;-2.60;1.00
5930;DHT22;2990;48.746;9.236;2023-02-28T04:51:41;-2.60;99.90
5930;DHT22;2990;48.746;9.236;2023-02-28T04:54:07;-2.50;34.20
5930;DHT22;2990;48.746;9.236;2023-02-28T04:56:36;-2.40;1.00
5930;DHT22;2990;48.746;9.236;2023-02-28T04:59:05;-2.50;1.00
5930;DHT22;2990;48.746;9.236;2023-02-28T05:01:35;-2.50;99.90
5930;DHT22;2990;48.746;9.236;2023-02-28T05:04:03;-2.50;99.90
5930;DHT22;2990;48.746;9.236;2023-02-28T05:06:33;-2.50;1.00
5930;DHT22;2990;48.746;9.236;2023-02-28T05:08:59;-2.50;1.00
5930;DHT22;2990;48.746;9.236;2023-02-28T05:11:28;-2.50;99.90
5930;DHT22;2990;48.746;9.236;2023-02-28T05:13:55;-2.50;99.90
5930;DHT22;2990;48.746;9.236;2023-02-28T05:16:33;-2.50;99.90
5930;DHT22;2990;48.746;9.236;2023-02-28T05:19:43;-2.50;1.00
5930;DHT22;2990;48.746;9.236;2023-02-28T05:22:16;-2.50;1.00
5930;DHT22;2990;48.746;9.236;2023-02-28T05:24:51;-2.50;1.00
5930;DHT22;2990;48.746;9.236;2023-02-28T05:30:52;-2.40;1.00
5930;DHT22;2990;48.746;9.236;2023-02-28T05:33:27;-2.40;1.00
5930;DHT22;2990;48.746;9.236;2023-02-28T05:36:15;-2.40;14.20
5930;DHT22;2990;48.746;9.236;2023-02-28T05:39:15;-2.40;1.00
5930;DHT22;2990;48.746;9.236;2023-02-28T05:41:52;-2.40;1.00
5930;DHT22;2990;48.746;9.236;2023-02-28T05:44:19;-2.20;1.00
5930;DHT22;2990;48.746;9.236;2023-02-28T05:46:45;-2.40;1.00
5930;DHT22;2990;48.746;9.236;2023-02-28T05:49:10;-2.30;1.00
5930;DHT22;2990;48.746;9.236;2023-02-28T05:51:36;-2.40;99.90
5930;DHT22;2990;48.746;9.236;2023-02-28T05:54:05;-2.30;99.90
5930;DHT22;2990;48.746;9.236;2023-02-28T05:56:34;-2.20;1.00
5930;DHT22;2990;48.746;9.236;2023-02-28T05:59:43;-2.30;3.90
5930;DHT22;2990;48.746;9.236;2023-02-28T06:02:14;-2.30;1.00
5930;DHT22;2990;48.746;9.236;2023-02-28T06:04:40;-2.30;1.00
5930;DHT22;2990;48.746;9.236;2023-02-28T06:07:07;-2.30;1.00
5930;DHT22;2990;48.746;9.236;2023-02-28T06:09:33;-2.30;1.00
5930;DHT22;2990;48.746;9.236;2023-02-28T06:12:05;-2.30;1.00
5930;DHT22;2990;48.746;9.236;2023-02-28T06:14:36;-2.30;1.00
5930;DHT22;2990;48.746;9.236;2023-02-28T06:17:03;-2.30;99.90
5930;DHT22;2990;48.746;9.236;2023-02-28T06:19:37;-2.30;1.00
5930;DHT22;2990;48.746;9.236;2023-02-28T06:22:04;-2.30;1.00
5930;DHT22;2990;48.746;9.236;2023-02-28T06:24:30;-2.30;1.00
5930;DHT22;2990;48.746;9.236;2023-02-28T06:26:58;-2.30;1.00
5930;DHT22;2990;48.746;9.236;2023-02-28T06:29:31;-2.30;1.00
5930;DHT22;2990;48.746;9.236;2023-02-28T06:32:11;-2.30;1.00
5930;DHT22;2990;48.746;9.236;2023-02-28T06:35:16;-2.20;1.00
5930;DHT22;2990;48.746;9.236;2023-02-28T06:37:41;-2.30;99.90
5930;DHT22;2990;48.746;9.236;2023-02-28T06:40:13;-2.20;1.00
5930;DHT22;2990;48.746;9.236;2023-02-28T06:42:45;-2.20;1.00
5930;DHT22;2990;48.746;9.236;2023-02-28T06:45:54;-2.20;99.90
5930;DHT22;2990;48.746;9.236;2023-02-28T06:48:23;-2.20;99.90
5930;DHT22;2990;48.746;9.236;2023-02-28T06:50:50;-2.20;1.00
5930;DHT22;2990;48.746;9.236;2023-02-28T06:53:25;-2.10;99.90
5930;DHT22;2990;48.746;9.236;2023-02-28T06:59:06;-2.10;1.00
5930;DHT22;2990;48.746;9.236;2023-02-28T07:01:37;-2.00;1.00
5930;DHT22;2990;48.746;9.236;2023-02-28T07:04:06;-2.00;1.00
5930;DHT22;2990;48.746;9.236;2023-02-28T07:07:10;-2.00;1.00
5930;DHT22;2990;48.746;9.236;2023-02-28T07:09:36;-2.00;1.00
5930;DHT22;2990;48.746;9.236;2023-02-28T07:12:22;-2.00;1.00
5930;DHT22;2990;48.746;9.236;2023-02-28T07:14:48;-2.00;1.00
5930;DHT22;2990;48.746;9.236;2023-02-28T07:17:14;-2.00;99.90
5930;DHT22;2990;48.746;9.236;2023-02-28T07:19:49;-2.00;1.00
5930;DHT22;2990;48.746;9.236;2023-02-28T07:22:20;-2.00;1.00
5930;DHT22;2990;48.746;9.236;2023-02-28T07:24:51;-2.00;99.90
5930;DHT22;2990;48.746;9.236;2023-02-28T07:27:19;-1.90;99.90
5930;DHT22;2990;48.746;9.236;2023-02-28T07:29:51;-1.80;99.90
5930;DHT22;2990;48.746;9.236;2023-02-28T07:32:18;-1.70;2.20
5930;DHT22;2990;48.746;9.236;2023-02-28T07:34:44;-1.90;99.90
5930;DHT22;2990;48.746;9.236;2023-02-28T07:37:13;-1.90;1.00
5930;DHT22;2990;48.746;9.236;2023-02-28T07:39:39;-1.80;1.00
5930;DHT22;2990;48.746;9.236;2023-02-28T07:42:25;-1.80;1.00
5930;DHT22;2990;48.746;9.236;2023-02-28T07:44:50;-1.80;1.00
5930;DHT22;2990;48.746;9.236;2023-02-28T07:47:55;-1.80;1.00
5930;DHT22;2990;48.746;9.236;2023-02-28T07:50:21;-1.80;1.00
5930;DHT22;2990;48.746;9.236;2023-02-28T07:52:50;-1.80;1.00
5930;DHT22;2990;48.746;9.236;2023-02-28T07:55:17;-1.80;1.00
5930;DHT22;2990;48.746;9.236;2023-02-28T07:57:43;-1.80;1.00
5930;DHT22;2990;48.746;9.236;2023-02-28T08:00:15;-1.70;1.00
5930;DHT22;2990;48.746;9.236;2023-02-28T08:02:41;-1.70;1.00
5930;DHT22;2990;48.746;9.236;2023-02-28T08:05:07;-1.70;1.00
5930;DHT22;2990;48.746;9.236;2023-02-28T08:07:59;-1.70;1.00
5930;DHT22;2990;48.746;9.236;2023-02-28T08:10:31;-1.60;1.00
5930;DHT22;2990;48.746;9.236;2023-02-28T08:12:56;-1.60;1.00
5930;DHT22;2990;48.746;9.236;2023-02-28T08:15:22;-1.60;1.00
5930;DHT22;2990;48.746;9.236;2023-02-28T08:17:48;-1.60;1.00
5930;DHT22;2990;48.746;9.236;2023-02-28T08:20:13;-1.60;1.00
5930;DHT22;2990;48.746;9.236;2023-02-28T08:22:39;-1.60;1.00
5930;DHT22;2990;48.746;9.236;2023-02-28T08:25:05;-1.60;1.00
5930;DHT22;2990;48.746;9.236;2023-02-28T08:27:32;-1.60;1.00
5930;DHT22;2990;48.746;9.236;2023-02-28T08:29:58;-1.60;1.00
5930;DHT22;2990;48.746;9.236;2023-02-28T08:32:24;-1.50;1.00
5930;DHT22;2990;48.746;9.236;2023-02-28T08:34:49;-1.50;1.00
5930;DHT22;2990;48.746;9.236;2023-02-28T08:37:15;-1.50;1.00
5930;DHT22;2990;48.746;9.236;2023-02-28T08:39:41;-1.40;1.00
5930;DHT22;2990;48.746;9.236;2023-02-28T08:42:07;-1.30;1.00
5930;DHT22;2990;48.746;9.236;2023-02-28T08:44:32;-1.40;99.90
5930;DHT22;2990;48.746;9.236;2023-02-28T08:46:58;-1.30;99.90
5930;DHT22;2990;48.746;9.236;2023-02-28T08:49:24;-1.30;99.90
5930;DHT22;2990;48.746;9.236;2023-02-28T08:51:50;-1.20;99.90
5930;DHT22;2990;48.746;9.236;2023-02-28T08:54:15;-1.20;99.90
5930;DHT22;2990;48.746;9.236;2023-02-28T08:56:45;-1.30;99.90
5930;DHT22;2990;48.746;9.236;2023-02-28T08:59:12;-1.40;99.90
5930;DHT22;2990;48.746;9.236;2023-02-28T09:01:37;-1.30;99.90
5930;DHT22;2990;48.746;9.236;2023-02-28T09:04:03;-1.30;99.90
5930;DHT22;2990;48.746;9.236;2023-02-28T09:06:29;-1.20;99.90
5930;DHT22;2990;48.746;9.236;2023-02-28T09:08:59;-1.30;99.90
5930;DHT22;2990;48.746;9.236;2023-02-28T09:11:26;-1.30;99.90
5930;DHT22;2990;48.746;9.236;2023-02-28T09:13:52;-1.20;99.90
5930;DHT22;2990;48.746;9.236;2023-02-28T09:16:19;-1.20;99.90
5930;DHT22;2990;48.746;9.236;2023-02-28T09:18:46;-1.10;99.90
5930;DHT22;2990;48.746;9.236;2023-02-28T09:21:17;-1.10;97.00
5930;DHT22;2990;48.746;9.236;2023-02-28T09:23:44;-1.00;90.30
5930;DHT22;2990;48.746;9.236;2023-02-28T09:26:14;-0.90;91.50
5930;DHT22;2990;48.746;9.236;2023-02-28T09:28:40;-0.90;98.20
5930;DHT22;2990;48.746;9.236;2023-02-28T09:31:06;-0.90;56.10
5930;DHT22;2990;48.746;9.236;2023-02-28T09:33:32;-0.70;14.40
5930;DHT22;2990;48.746;9.236;2023-02-28T09:36:01;-0.80;1.00
5930;DHT22;2990;48.746;9.236;2023-02-28T09:38:27;-0.70;1.00
5930;DHT22;2990;48.746;9.236;2023-02-28T09:41:02;-0.60;1.00
5930;DHT22;2990;48.746;9.236;2023-02-28T09:43:33;-0.60;1.00
5930;DHT22;2990;48.746;9.236;2023-02-28T09:46:11;-0.70;1.00
5930;DHT22;2990;48.746;9.236;2023-02-28T09:48:41;-0.70;1.00
5930;DHT22;2990;48.746;9.236;2023-02-28T09:51:18;-0.70;1.00
5930;DHT22;2990;48.746;9.236;2023-02-28T09:53:46;-0.60;1.00
5930;DHT22;2990;48.746;9.236;2023-02-28T09:56:20;-0.60;1.00
5930;DHT22;2990;48.746;9.236;2023-02-28T10:07:32;-0.30;1.00
5930;DHT22;2990;48.746;9.236;2023-02-28T10:10:04;-0.30;1.00
5930;DHT22;2990;48.746;9.236;2023-02-28T10:12:33;-0.20;1.00
5930;DHT22;2990;48.746;9.236;2023-02-28T10:15:01;-0.10;1.00
5930;DHT22;2990;48.746;9.236;2023-02-28T10:17:38;-0.20;1.00
5930;DHT22;2990;48.746;9.236;2023-02-28T10:22:56;-0.10;1.00
5930;DHT22;2990;48.746;9.236;2023-02-28T10:25:28;-0.10;1.00
5930;DHT22;2990;48.746;9.236;2023-02-28T10:27:58;0.00;1.00
5930;DHT22;2990;48.746;9.236;2023-02-28T10:30:26;-0.10;1.00
5930;DHT22;2990;48.746;9.236;2023-02-28T10:32:52;0.10;1.00
5930;DHT22;2990;48.746;9.236;2023-02-28T10:35:25;0.10;1.00
5930;DHT22;2990;48.746;9.236;2023-02-28T10:37:59;0.30;1.00
5930;DHT22;2990;48.746;9.236;2023-02-28T10:40:34;0.30;1.00
5930;DHT22;2990;48.746;9.236;2023-02-28T10:43:19;0.20;1.00
5930;DHT22;2990;48.746;9.236;2023-02-28T10:48:39;0.40;1.00
5930;DHT22;2990;48.746;9.236;2023-02-28T10:51:11;0.50;1.00
5930;DHT22;2990;48.746;9.236;2023-02-28T10:53:49;0.60;1.00
5930;DHT22;2990;48.746;9.236;2023-02-28T10:56:22;0.70;1.00
5930;DHT22;2990;48.746;9.236;2023-02-28T10:59:02;0.70;1.00
5930;DHT22;2990;48.746;9.236;2023-02-28T11:01:38;0.80;1.00
5930;DHT22;2990;48.746;9.236;2023-02-28T11:06:57;0.80;1.00
5930;DHT22;2990;48.746;9.236;2023-02-28T11:11:57;1.10;99.90
5930;DHT22;2990;48.746;9.236;2023-02-28T11:14:28;1.00;99.90
5930;DHT22;2990;48.746;9.236;2023-02-28T11:16:59;1.00;99.90
5930;DHT22;2990;48.746;9.236;2023-02-28T11:19:28;1.00;99.90
5930;DHT22;2990;48.746;9.236;2023-02-28T11:22:00;0.90;99.90
5930;DHT22;2990;48.746;9.236;2023-02-28T11:24:29;1.00;99.90
5930;DHT22;2990;48.746;9.236;2023-02-28T11:26:56;0.70;99.90
5930;DHT22;2990;48.746;9.236;2023-02-28T11:32:19;1.00;99.90
5930;DHT22;2990;48.746;9.236;2023-02-28T11:34:47;1.50;99.90
5930;DHT22;2990;48.746;9.236;2023-02-28T11:37:26;2.00;99.90
5930;DHT22;2990;48.746;9.236;2023-02-28T11:39:52;2.20;99.90
5930;DHT22;2990;48.746;9.236;2023-02-28T11:48:01;2.80;99.90
5930;DHT22;2990;48.746;9.236;2023-02-28T11:50:47;2.70;99.90
5930;DHT22;2990;48.746;9.236;2023-02-28T11:53:40;2.70;99.90
5930;DHT22;2990;48.746;9.236;2023-02-28T11:56:17;2.80;99.90
5930;DHT22;2990;48.746;9.236;2023-02-28T11:59:08;2.70;99.90
5930;DHT22;2990;48.746;9.236;2023-02-28T12:02:04;2.90;99.90
5930;DHT22;2990;48.746;9.236;2023-02-28T12:04:52;3.20;99.90
5930;DHT22;2990;48.746;9.236;2023-02-28T12:12:52;3.00;99.90
5930;DHT22;2990;48.746;9.236;2023-02-28T12:18:22;3.20;99.90
5930;DHT22;2990;48.746;9.236;2023-02-28T12:23:46;3.40;99.90
5930;DHT22;2990;48.746;9.236;2023-02-28T12:26:41;3.90;99.90
5930;DHT22;2990;48.746;9.236;2023-02-28T12:29:25;4.10;99.90
5930;DHT22;2990;48.746;9.236;2023-02-28T12:31:59;4.50;99.90
5930;DHT22;2990;48.746;9.236;2023-02-28T12:34:35;4.50;99.90
5930;DHT22;2990;48.746;9.236;2023-02-28T12:37:14;4.50;99.90
5930;DHT22;2990;48.746;9.236;2023-02-28T12:39:46;4.60;99.90
5930;DHT22;2990;48.746;9.236;2023-02-28T12:42:19;4.20;99.90
5930;DHT22;2990;48.746;9.236;2023-02-28T12:44:52;4.10;99.90
5930;DHT22;2990;48.746;9.236;2023-02-28T12:47:19;4.30;99.90
5930;DHT22;2990;48.746;9.236;2023-02-28T12:50:00;4.30;99.90
5930;DHT22;2990;48.746;9.236;2023-02-28T12:52:58;4.30;99.90
5930;DHT22;2990;48.746;9.236;2023-02-28T12:56:17;4.10;99.90
5930;DHT22;2990;48.746;9.236;2023-02-28T13:10:46;4.10;99.90
5930;DHT22;2990;48.746;9.236;2023-02-28T13:13:17;4.10;99.90
5930;DHT22;2990;48.746;9.236;2023-02-28T13:16:07;4.00;99.90
5930;DHT22;2990;48.746;9.236;2023-02-28T13:18:44;3.90;99.90
5930;DHT22;2990;48.746;9.236;2023-02-28T13:21:24;4.20;99.90
5930;DHT22;2990;48.746;9.236;2023-02-28T13:26:23;4.30;99.90
5930;DHT22;2990;48.746;9.236;2023-02-28T13:40:06;4.40;99.90
5930;DHT22;2990;48.746;9.236;2023-02-28T13:42:34;4.30;99.90
5930;DHT22;2990;48.746;9.236;2023-02-28T13:47:51;4.50;99.90
5930;DHT22;2990;48.746;9.236;2023-02-28T13:53:19;4.70;99.90
5930;DHT22;2990;48.746;9.236;2023-02-28T13:59:25;4.70;99.90
5930;DHT22;2990;48.746;9.236;2023-02-28T14:03:07;4.60;99.90
5930;DHT22;2990;48.746;9.236;2023-02-28T14:05:15;4.80;99.90
5930;DHT22;2990;48.746;9.236;2023-02-28T14:07:48;4.70;99.90
5930;DHT22;2990;48.746;9.236;2023-02-28T14:10:37;4.70;99.90
5930;DHT22;2990;48.746;9.236;2023-02-28T14:15:59;4.40;99.90
5930;DHT22;2990;48.746;9.236;2023-02-28T14:18:31;4.50;99.90
5930;DHT22;2990;48.746;9.236;2023-02-28T14:21:22;4.30;99.90
5930;DHT22;2990;48.746;9.236;2023-02-28T14:26:55;4.40;99.90
5930;DHT22;2990;48.746;9.236;2023-02-28T14:29:45;4.50;99.90
5930;DHT22;2990;48.746;9.236;2023-02-28T14:37:51;4.50;99.90
5930;DHT22;2990;48.746;9.236;2023-02-28T14:43:01;4.50;99.90
5930;DHT22;2990;48.746;9.236;2023-02-28T14:45:34;4.50;99.90
5930;DHT22;2990;48.746;9.236;2023-02-28T14:48:01;4.40;99.90
5930;DHT22;2990;48.746;9.236;2023-02-28T14:50:33;4.40;99.90
5930;DHT22;2990;48.746;9.236;2023-02-28T14:53:00;4.40;99.90
5930;DHT22;2990;48.746;9.236;2023-02-28T14:55:30;4.40;99.90
5930;DHT22;2990;48.746;9.236;2023-02-28T14:58:02;4.30;99.90
5930;DHT22;2990;48.746;9.236;2023-02-28T15:00:31;4.20;99.90
5930;DHT22;2990;48.746;9.236;2023-02-28T15:02:59;4.20;99.90
5930;DHT22;2990;48.746;9.236;2023-02-28T15:05:29;4.10;99.90
5930;DHT22;2990;48.746;9.236;2023-02-28T15:08:14;4.10;99.90
5930;DHT22;2990;48.746;9.236;2023-02-28T15:10:52;4.10;99.90
5930;DHT22;2990;48.746;9.236;2023-02-28T15:13:19;4.10;99.90
5930;DHT22;2990;48.746;9.236;2023-02-28T15:16:03;4.00;99.90
5930;DHT22;2990;48.746;9.236;2023-02-28T15:21:19;4.10;99.90
5930;DHT22;2990;48.746;9.236;2023-02-28T15:23:50;4.00;99.90
5930;DHT22;2990;48.746;9.236;2023-02-28T15:26:20;4.00;99.90
5930;DHT22;2990;48.746;9.236;2023-02-28T15:28:51;3.90;99.90
5930;DHT22;2990;48.746;9.236;2023-02-28T15:31:23;4.00;99.90
5930;DHT22;2990;48.746;9.236;2023-02-28T15:33:56;4.10;99.90
5930;DHT22;2990;48.746;9.236;2023-02-28T15:36:26;3.90;99.90
5930;DHT22;2990;48.746;9.236;2023-02-28T15:38:53;3.90;99.90
5930;DHT22;2990;48.746;9.236;2023-02-28T15:41:25;3.90;99.90
5930;DHT22;2990;48.746;9.236;2023-02-28T15:44:24;3.80;99.90
5930;DHT22;2990;48.746;9.236;2023-02-28T15:46:59;3.70;99.90
5930;DHT22;2990;48.746;9.236;2023-02-28T15:49:27;3.80;99.90
5930;DHT22;2990;48.746;9.236;2023-02-28T15:51:55;3.80;99.90
5930;DHT22;2990;48.746;9.236;2023-02-28T15:54:31;3.80;99.90
5930;DHT22;2990;48.746;9.236;2023-02-28T15:57:07;3.70;99.90
5930;DHT22;2990;48.746;9.236;2023-02-28T15:59:35;3.70;99.90
5930;DHT22;2990;48.746;9.236;2023-02-28T16:02:20;3.70;99.90
5930;DHT22;2990;48.746;9.236;2023-02-28T16:07:29;3.60;99.90
5930;DHT22;2990;48.746;9.236;2023-02-28T16:10:04;3.60;99.90
5930;DHT22;2990;48.746;9.236;2023-02-28T16:12:38;3.40;99.90
5930;DHT22;2990;48.746;9.236;2023-02-28T16:15:17;3.30;99.90
5930;DHT22;2990;48.746;9.236;2023-02-28T16:17:46;3.30;99.90
5930;DHT22;2990;48.746;9.236;2023-02-28T16:20:20;3.10;99.90
5930;DHT22;2990;48.746;9.236;2023-02-28T16:22:56;3.20;99.90
5930;DHT22;2990;48.746;9.236;2023-02-28T16:25:35;3.20;99.90
5930;DHT22;2990;48.746;9.236;2023-02-28T16:28:02;3.10;99.90
5930;DHT22;2990;48.746;9.236;2023-02-28T16:30:29;3.10;99.90
5930;DHT22;2990;48.746;9.236;2023-02-28T16:32:58;3.00;99.90
5930;DHT22;2990;48.746;9.236;2023-02-28T16:55:42;2.60;99.90
5930;DHT22;2990;48.746;9.236;2023-02-28T16:58:13;2.50;99.90
5930;DHT22;2990;48.746;9.236;2023-02-28T17:04:36;2.40;99.90
5930;DHT22;2990;48.746;9.236;2023-02-28T17:17:18;2.20;99.90
5930;DHT22;2990;48.746;9.236;2023-02-28T17:19:45;2.20;99.90
5930;DHT22;2990;48.746;9.236;2023-02-28T17:22:10;2.30;99.90
5930;DHT22;2990;48.746;9.236;2023-02-28T17:24:36;2.10;99.90
5930;DHT22;2990;48.746;9.236;2023-02-28T17:27:02;2.00;99.90
5930;DHT22;2990;48.746;9.236;2023-02-28T17:29:28;2.00;99.90
5930;DHT22;2990;48.746;9.236;2023-02-28T17:31:54;2.00;99.90
5930;DHT22;2990;48.746;9.236;2023-02-28T17:34:20;2.00;99.90
5930;DHT22;2990;48.746;9.236;2023-02-28T17:36:48;2.00;99.90
5930;DHT22;2990;48.746;9.236;2023-02-28T17:39:14;1.90;99.90
5930;DHT22;2990;48.746;9.236;2023-02-28T17:41:43;1.90;99.90
5930;DHT22;2990;48.746;9.236;2023-02-28T17:44:09;1.90;99.90
5930;DHT22;2990;48.746;9.236;2023-02-28T17:46:35;1.80;99.90
5930;DHT22;2990;48.746;9.236;2023-02-28T17:49:01;1.80;99.90
5930;DHT22;2990;48.746;9.236;2023-02-28T17:51:27;1.80;99.90
5930;DHT22;2990;48.746;9.236;2023-02-28T17:53:52;1.70;99.90
5930;DHT22;2990;48.746;9.236;2023-02-28T17:56:23;1.60;99.90
5930;DHT22;2990;48.746;9.236;2023-02-28T17:58:51;1.60;99.90
5930;DHT22;2990;48.746;9.236;2023-02-28T18:01:17;1.60;99.90
5930;DHT22;2990;48.746;9.236;2023-02-28T18:03:43;1.50;99.90
5930;DHT22;2990;48.746;9.236;2023-02-28T18:06:19;1.50;99.90
5930;DHT22;2990;48.746;9.236;2023-02-28T18:08:46;1.40;99.90
5930;DHT22;2990;48.746;9.236;2023-02-28T18:11:12;1.40;99.90
5930;DHT22;2990;48.746;9.236;2023-02-28T18:13:51;1.40;99.90
5930;DHT22;2990;48.746;9.236;2023-02-28T18:16:18;1.40;99.90
5930;DHT22;2990;48.746;9.236;2023-02-28T18:18:44;1.40;99.90
5930;DHT22;2990;48.746;9.236;2023-02-28T18:21:11;1.30;99.90
5930;DHT22;2990;48.746;9.236;2023-02-28T18:23:37;1.30;99.90
5930;DHT22;2990;48.746;9.236;2023-02-28T18:26:09;1.20;99.90
5930;DHT22;2990;48.746;9.236;2023-02-28T18:28:35;1.20;99.90
5930;DHT22;2990;48.746;9.236;2023-02-28T18:31:08;1.10;99.90
5930;DHT22;2990;48.746;9.236;2023-02-28T18:33:34;1.10;99.90
5930;DHT22;2990;48.746;9.236;2023-02-28T18:36:00;1.10;99.90
5930;DHT22;2990;48.746;9.236;2023-02-28T18:38:26;1.10;99.90
5930;DHT22;2990;48.746;9.236;2023-02-28T18:40:56;1.10;99.90
5930;DHT22;2990;48.746;9.236;2023-02-28T18:43:22;1.00;99.90
5930;DHT22;2990;48.746;9.236;2023-02-28T18:45:47;1.00;99.90
5930;DHT22;2990;48.746;9.236;2023-02-28T18:48:13;1.00;99.90
5930;DHT22;2990;48.746;9.236;2023-02-28T18:50:40;1.00;99.90
5930;DHT22;2990;48.746;9.236;2023-02-28T18:53:06;0.90;99.90
5930;DHT22;2990;48.746;9.236;2023-02-28T18:55:32;0.90;99.90
5930;DHT22;2990;48.746;9.236;2023-02-28T18:57:58;0.90;99.90
5930;DHT22;2990;48.746;9.236;2023-02-28T19:00:24;0.90;99.90
5930;DHT22;2990;48.746;9.236;2023-02-28T19:02:50;0.90;99.90
5930;DHT22;2990;48.746;9.236;2023-02-28T19:05:17;0.80;99.90
5930;DHT22;2990;48.746;9.236;2023-02-28T19:07:43;0.70;99.90
5930;DHT22;2990;48.746;9.236;2023-02-28T19:10:09;0.80;99.90
5930;DHT22;2990;48.746;9.236;2023-02-28T19:12:36;0.80;99.90
5930;DHT22;2990;48.746;9.236;2023-02-28T19:15:03;0.70;99.90
5930;DHT22;2990;48.746;9.236;2023-02-28T19:17:29;0.70;99.90
5930;DHT22;2990;48.746;9.236;2023-02-28T19:19:54;0.60;99.90
5930;DHT22;2990;48.746;9.236;2023-02-28T19:22:20;0.60;99.90
5930;DHT22;2990;48.746;9.236;2023-02-28T19:24:45;0.70;99.90
5930;DHT22;2990;48.746;9.236;2023-02-28T19:27:11;0.70;99.90
5930;DHT22;2990;48.746;9.236;2023-02-28T19:29:36;0.60;99.90
5930;DHT22;2990;48.746;9.236;2023-02-28T19:32:02;0.60;99.90
5930;DHT22;2990;48.746;9.236;2023-02-28T19:34:29;0.70;99.90
5930;DHT22;2990;48.746;9.236;2023-02-28T19:36:54;0.60;99.90
5930;DHT22;2990;48.746;9.236;2023-02-28T19:39:21;0.50;99.90
5930;DHT22;2990;48.746;9.236;2023-02-28T19:41:46;0.50;99.90
5930;DHT22;2990;48.746;9.236;2023-02-28T19:44:12;0.40;1.00
5930;DHT22;2990;48.746;9.236;2023-02-28T19:46:37;0.40;1.00